createdAt,value
2023-09-06T00:01:30.650Z,100893.66
2023-09-06T00:03:57.289Z,100883.84
2023-09-06T00:06:23.985Z,100888.31
2023-09-06T00:08:51.911Z,100895.44
2023-09-06T00:11:18.340Z,100886.50
2023-09-06T00:13:44.676Z,100888.34
2023-09-06T00:16:11.001Z,100898.16
2023-09-06T00:18:38.550Z,100898.19
2023-09-06T00:21:06.905Z,100899.09
2023-09-06T00:23:33.959Z,100896.44
2023-09-06T00:26:00.517Z,100897.31
2023-09-06T00:28:27.798Z,100889.31
2023-09-06T00:30:58.868Z,100893.78
2023-09-06T00:33:34.106Z,100885.75
2023-09-06T00:36:02.236Z,100887.53
2023-09-06T00:38:30.223Z,100889.31
2023-09-06T00:40:56.829Z,100886.66
2023-09-06T00:43:23.268Z,100890.16
2023-09-06T00:45:51.836Z,100880.41
2023-09-06T00:48:30.654Z,100883.94
2023-09-06T00:50:58.337Z,100880.34
2023-09-06T00:53:26.424Z,100883.03
2023-09-06T00:55:53.262Z,100881.25
2023-09-06T00:58:21.407Z,100878.56
2023-09-06T01:00:51.299Z,100878.56
2023-09-06T01:03:18.533Z,100867.00
2023-09-06T01:05:53.257Z,100871.47
2023-09-06T01:08:29.972Z,100876.78
2023-09-06T01:11:12.207Z,100870.56
2023-09-06T01:13:38.595Z,100882.97
2023-09-06T01:16:05.268Z,100866.03
2023-09-06T01:18:32.135Z,100862.47
2023-09-06T01:21:07.695Z,100870.47
2023-09-06T01:23:35.798Z,100869.56
2023-09-06T01:26:03.511Z,100881.16
2023-09-06T01:28:30.410Z,100867.81
2023-09-06T01:30:57.792Z,100871.34
2023-09-06T01:33:24.315Z,100866.88
2023-09-06T01:35:51.736Z,100874.81
2023-09-06T01:38:18.669Z,100866.78
2023-09-06T01:40:45.688Z,100864.97
2023-09-06T01:43:12.755Z,100866.75
2023-09-06T01:45:45.923Z,100857.88
2023-09-06T01:48:12.766Z,100868.53
2023-09-06T01:50:39.115Z,100850.75
2023-09-06T01:53:05.488Z,100845.41
2023-09-06T01:55:31.886Z,100854.31
2023-09-06T01:57:58.274Z,100848.06
2023-09-06T02:00:33.365Z,100856.06
2023-09-06T02:03:00.893Z,100848.94
2023-09-06T02:05:27.416Z,100863.16
2023-09-06T02:07:53.750Z,100862.16
2023-09-06T02:10:20.183Z,100855.03
2023-09-06T02:12:46.688Z,100867.53
2023-09-06T02:15:16.298Z,100853.25
2023-09-06T02:17:44.158Z,100865.69
2023-09-06T02:20:25.653Z,100861.22
2023-09-06T02:22:57.338Z,100856.78
2023-09-06T02:25:31.786Z,100860.38
2023-09-06T02:27:59.330Z,100859.44
2023-09-06T02:30:26.080Z,100856.75
2023-09-06T02:32:53.359Z,100865.59
2023-09-06T02:35:20.023Z,100867.31
2023-09-06T02:37:46.416Z,100878.91
2023-09-06T02:40:18.138Z,100870.84
2023-09-06T02:42:45.386Z,100872.63
2023-09-06T02:45:12.774Z,100876.22
2023-09-06T02:47:49.046Z,100873.56
2023-09-06T02:50:17.973Z,100867.41
2023-09-06T02:52:47.776Z,100872.75
2023-09-06T02:55:14.746Z,100874.50
2023-09-06T02:57:42.687Z,100879.78
2023-09-06T03:00:30.759Z,100883.28
2023-09-06T03:03:07.935Z,100883.19
2023-09-06T03:05:44.885Z,100880.53
2023-09-06T03:08:15.770Z,100890.31
2023-09-06T03:10:43.604Z,100887.72
2023-09-06T03:13:12.866Z,100886.75
2023-09-06T03:15:44.561Z,100891.09
2023-09-06T03:18:11.404Z,100893.69
2023-09-06T03:20:46.819Z,100877.66
2023-09-06T03:23:18.608Z,100885.59
2023-09-06T03:25:46.748Z,100881.06
2023-09-06T03:28:13.464Z,100886.38
2023-09-06T03:30:40.080Z,100885.50
2023-09-06T03:33:07.398Z,100876.59
2023-09-06T03:35:34.257Z,100874.88
2023-09-06T03:38:01.181Z,100874.88
2023-09-06T03:40:35.903Z,100878.41
2023-09-06T03:43:06.898Z,100883.72
2023-09-06T03:45:35.224Z,100877.47
2023-09-06T03:48:01.884Z,100877.41
2023-09-06T03:50:31.172Z,100885.38
2023-09-06T03:52:58.380Z,100893.31
2023-09-06T03:55:25.646Z,100883.53
2023-09-06T03:57:53.510Z,100887.00
2023-09-06T04:00:27.655Z,100889.69
2023-09-06T04:03:01.068Z,100893.16
2023-09-06T04:05:28.252Z,100893.97
2023-09-06T04:07:57.362Z,100893.91
2023-09-06T04:10:25.731Z,100889.44
2023-09-06T04:12:54.558Z,100900.13
2023-09-06T04:15:22.530Z,100899.22
2023-09-06T04:17:58.622Z,100902.75
2023-09-06T04:20:32.256Z,100906.28
2023-09-06T04:23:05.181Z,100911.56
2023-09-06T04:25:35.508Z,100905.41
2023-09-06T04:28:02.626Z,100903.63
2023-09-06T04:30:29.956Z,100905.53
2023-09-06T04:32:58.818Z,100893.06
2023-09-06T04:35:34.757Z,100899.44
2023-09-06T04:38:03.745Z,100908.38
2023-09-06T04:40:30.462Z,100903.94
2023-09-06T04:42:57.051Z,100910.09
2023-09-06T04:45:23.526Z,100905.69
2023-09-06T04:47:50.266Z,100901.31
2023-09-06T04:50:16.825Z,100898.59
2023-09-06T04:52:48.552Z,100899.44
2023-09-06T04:55:15.938Z,100903.78
2023-09-06T04:57:42.671Z,100894.78
2023-09-06T05:00:18.564Z,100907.13
2023-09-06T05:02:47.023Z,100918.59
2023-09-06T05:05:16.829Z,100911.47
2023-09-06T05:07:43.236Z,100916.69
2023-09-06T05:10:12.844Z,100921.25
2023-09-06T05:12:40.028Z,100922.19
2023-09-06T05:15:07.631Z,100922.25
2023-09-06T05:17:34.228Z,100915.97
2023-09-06T05:20:28.848Z,100923.19
2023-09-06T05:22:57.185Z,100934.94
2023-09-06T05:25:23.696Z,100926.97
2023-09-06T05:27:50.680Z,100931.38
2023-09-06T05:30:17.281Z,100927.78
2023-09-06T05:32:44.302Z,100929.53
2023-09-06T05:35:11.644Z,100925.13
2023-09-06T05:37:39.205Z,100925.19
2023-09-06T05:40:07.097Z,100929.66
2023-09-06T05:42:33.604Z,100931.47
2023-09-06T05:45:00.128Z,100931.50
2023-09-06T05:47:26.745Z,100936.88
2023-09-06T05:49:56.822Z,100938.69
2023-09-06T05:52:23.754Z,100937.03
2023-09-06T05:54:51.023Z,100945.25
2023-09-06T05:57:19.540Z,100949.84
2023-09-06T05:59:46.047Z,100949.13
2023-09-06T06:02:13.138Z,100955.38
2023-09-06T06:04:40.932Z,100945.63
2023-09-06T06:07:07.600Z,100947.44
2023-09-06T06:09:34.918Z,100947.56
2023-09-06T06:12:04.685Z,100957.38
2023-09-06T06:14:31.393Z,100961.03
2023-09-06T06:16:58.521Z,100962.03
2023-09-06T06:19:25.103Z,100963.84
2023-09-06T06:21:51.758Z,100955.88
2023-09-06T06:24:18.587Z,100952.38
2023-09-06T06:26:44.976Z,100953.28
2023-09-06T06:29:11.474Z,100963.09
2023-09-06T06:31:38.147Z,100953.31
2023-09-06T06:34:04.985Z,100954.22
2023-09-06T06:36:32.604Z,100954.22
2023-09-06T06:38:59.512Z,100961.44
2023-09-06T06:41:27.068Z,100958.75
2023-09-06T06:43:53.911Z,100957.88
2023-09-06T06:46:31.619Z,100957.88
2023-09-06T06:48:58.240Z,100956.13
2023-09-06T06:51:30.040Z,100955.22
2023-09-06T06:53:56.430Z,100950.75
2023-09-06T06:56:22.964Z,100960.53
2023-09-06T06:58:49.782Z,100958.75
2023-09-06T07:01:16.451Z,100962.28
2023-09-06T07:03:43.000Z,100968.53
2023-09-06T07:06:09.652Z,100956.00
2023-09-06T07:08:39.252Z,100965.47
2023-09-06T07:11:06.163Z,100965.25
2023-09-06T07:13:32.620Z,100974.34
2023-09-06T07:15:59.917Z,100976.16
2023-09-06T07:18:26.531Z,100978.22
2023-09-06T07:23:49.563Z,100980.63
2023-09-06T07:26:18.119Z,100973.84
2023-09-06T07:28:46.648Z,100981.97
2023-09-06T07:31:14.097Z,100989.38
2023-09-06T07:33:41.016Z,100982.09
2023-09-06T07:36:08.139Z,100982.75
2023-09-06T07:38:34.993Z,100981.91
2023-09-06T07:41:04.482Z,100994.78
2023-09-06T07:43:31.601Z,100990.41
2023-09-06T07:46:01.555Z,100993.94
2023-09-06T07:48:30.836Z,100991.41
2023-09-06T07:50:59.177Z,101000.31
2023-09-06T07:53:27.084Z,101005.63
2023-09-06T07:55:54.313Z,101007.44
2023-09-06T07:58:21.322Z,101011.06
2023-09-06T08:00:53.924Z,101012.75
2023-09-06T08:03:27.293Z,101009.88
2023-09-06T08:05:55.425Z,101014.94
2023-09-06T08:08:21.852Z,101021.00
2023-09-06T08:10:48.402Z,101020.88
2023-09-06T08:13:14.755Z,101023.44
2023-09-06T08:15:41.203Z,101024.81
2023-09-06T08:18:09.539Z,101022.75
2023-09-06T08:20:36.220Z,101030.91
2023-09-06T08:23:02.849Z,101036.09
2023-09-06T08:25:29.453Z,101031.50
2023-09-06T08:27:55.852Z,101032.94
2023-09-06T08:30:23.435Z,101028.34
2023-09-06T08:32:52.118Z,101031.13
2023-09-06T08:35:19.062Z,101036.53
2023-09-06T08:37:48.362Z,101034.72
2023-09-06T08:40:16.843Z,101021.59
2023-09-06T08:42:45.185Z,101026.03
2023-09-06T08:45:12.336Z,101019.41
2023-09-06T08:47:42.988Z,101025.19
2023-09-06T08:50:10.938Z,101013.00
2023-09-06T08:52:42.246Z,101025.06
2023-09-06T08:55:11.270Z,101018.03
2023-09-06T08:57:42.858Z,101021.72
2023-09-06T09:00:11.181Z,101016.41
2023-09-06T09:02:38.695Z,101019.91
2023-09-06T09:05:19.701Z,101016.34
2023-09-06T09:07:59.171Z,101016.06
2023-09-06T09:10:29.848Z,101023.78
2023-09-06T09:12:57.830Z,101022.94
2023-09-06T09:15:27.212Z,101021.34
2023-09-06T09:18:00.999Z,101018.94
2023-09-06T09:20:29.210Z,101020.50
2023-09-06T09:23:02.756Z,101019.53
2023-09-06T09:25:30.144Z,101025.72
2023-09-06T09:28:00.077Z,101016.00
2023-09-06T09:30:29.701Z,101020.47
2023-09-06T09:33:02.704Z,101010.94
2023-09-06T09:35:34.012Z,101012.31
2023-09-06T09:38:02.649Z,101004.03
2023-09-06T09:43:05.742Z,101003.69
2023-09-06T09:45:44.942Z,101005.28
2023-09-06T09:48:12.157Z,101009.09
2023-09-06T09:50:42.294Z,101001.91
2023-09-06T09:53:20.354Z,100997.91
2023-09-06T09:55:49.037Z,101002.19
2023-09-06T09:58:18.190Z,100994.19
2023-09-06T10:00:44.676Z,101001.31
2023-09-06T10:03:11.778Z,100993.06
2023-09-06T10:05:39.031Z,100991.84
2023-09-06T10:08:08.332Z,100992.72
2023-09-06T10:10:38.276Z,100993.81
2023-09-06T10:13:08.795Z,101001.19
2023-09-06T10:15:40.895Z,100994.28
2023-09-06T10:18:08.605Z,100989.88
2023-09-06T10:20:38.340Z,100988.78
2023-09-06T10:23:06.899Z,100988.78
2023-09-06T10:25:38.566Z,100986.94
2023-09-06T10:28:05.329Z,100987.16
2023-09-06T10:30:48.861Z,100984.75
2023-09-06T10:33:37.163Z,100981.13
2023-09-06T10:36:13.320Z,100983.13
2023-09-06T10:38:52.296Z,100989.44
2023-09-06T10:41:20.066Z,100983.47
2023-09-06T10:43:59.788Z,100972.25
2023-09-06T10:46:34.502Z,100980.72
2023-09-06T10:49:13.411Z,100978.84
2023-09-06T10:52:04.283Z,100977.19
2023-09-06T10:54:46.212Z,100966.44
2023-09-06T10:57:16.424Z,100956.69
2023-09-06T10:59:56.494Z,100965.78
2023-09-06T11:02:23.392Z,100964.00
2023-09-06T11:05:03.589Z,100967.75
2023-09-06T11:07:49.241Z,100966.66
2023-09-06T11:10:23.010Z,100963.22
2023-09-06T11:12:49.454Z,100963.47
2023-09-06T11:15:16.051Z,100954.34
2023-09-06T11:17:43.542Z,100950.00
2023-09-06T11:20:14.024Z,100955.28
2023-09-06T11:22:59.421Z,100957.78
2023-09-06T11:25:27.695Z,100946.94
2023-09-06T11:27:59.379Z,100944.75
2023-09-06T11:30:27.744Z,100939.88
2023-09-06T11:32:56.415Z,100938.44
2023-09-06T11:35:35.474Z,100937.28
2023-09-06T11:38:04.095Z,100938.09
2023-09-06T11:40:33.439Z,100930.94
2023-09-06T11:43:06.274Z,100931.09
2023-09-06T11:45:34.030Z,100926.28
2023-09-06T11:48:05.941Z,100920.63
2023-09-06T11:50:33.715Z,100920.72
2023-09-06T11:53:05.620Z,100922.44
2023-09-06T11:55:35.528Z,100916.06
2023-09-06T11:58:02.062Z,100922.69
2023-09-06T12:00:46.928Z,100919.09
2023-09-06T12:03:17.675Z,100913.16
2023-09-06T12:05:49.933Z,100910.06
2023-09-06T12:08:22.922Z,100903.03
2023-09-06T12:10:54.136Z,100897.09
2023-09-06T12:13:47.566Z,100905.78
2023-09-06T12:16:14.322Z,100897.69
2023-09-06T12:18:41.096Z,100890.53
2023-09-06T12:21:07.710Z,100896.47
2023-09-06T12:23:38.009Z,100884.09
2023-09-06T12:26:05.975Z,100885.63
2023-09-06T12:28:33.394Z,100882.69
2023-09-06T12:31:07.777Z,100876.25
2023-09-06T12:33:39.199Z,100875.28
2023-09-06T12:36:06.977Z,100869.47
2023-09-06T12:38:33.667Z,100873.63
2023-09-06T12:41:01.323Z,100875.03
2023-09-06T12:43:27.730Z,100877.19
2023-09-06T12:45:54.980Z,100865.22
2023-09-06T12:48:22.763Z,100871.94
2023-09-06T12:50:49.847Z,100862.50
2023-09-06T12:53:17.221Z,100857.75
2023-09-06T12:55:44.552Z,100869.69
2023-09-06T12:58:11.003Z,100859.63
2023-09-06T13:00:37.787Z,100860.78
2023-09-06T13:03:04.312Z,100860.63
2023-09-06T13:05:32.683Z,100862.66
2023-09-06T13:08:02.874Z,100853.44
2023-09-06T13:10:32.527Z,100852.06
2023-09-06T13:12:59.277Z,100847.09
2023-09-06T13:15:25.624Z,100847.38
2023-09-06T13:17:52.040Z,100845.91
2023-09-06T13:20:18.860Z,100845.84
2023-09-06T13:22:47.850Z,100808.75
2023-09-06T13:25:14.577Z,100825.00
2023-09-06T13:27:42.765Z,100834.88
2023-09-06T13:30:09.757Z,100828.16
2023-09-06T13:32:36.384Z,100833.03
2023-09-06T13:35:03.676Z,100824.09
2023-09-06T13:37:30.796Z,100821.72
2023-09-06T13:39:58.274Z,100822.13
2023-09-06T13:42:24.973Z,100817.84
2023-09-06T13:44:51.521Z,100819.75
2023-09-06T13:47:18.542Z,100825.97
2023-09-06T13:49:44.937Z,100811.88
2023-09-06T13:52:12.868Z,100814.03
2023-09-06T13:54:41.260Z,100805.06
2023-09-06T13:57:08.344Z,100810.38
2023-09-06T13:59:34.928Z,100813.28
2023-09-06T14:02:01.507Z,100813.38
2023-09-06T14:04:28.096Z,100811.28
2023-09-06T14:06:55.577Z,100809.09
2023-09-06T14:09:23.733Z,100798.44
2023-09-06T14:11:50.773Z,100798.03
2023-09-06T14:14:18.819Z,100807.81
2023-09-06T14:16:46.078Z,100799.50
2023-09-06T14:19:12.773Z,100800.59
2023-09-06T14:21:46.414Z,100800.00
2023-09-06T14:24:14.687Z,100794.97
2023-09-06T14:26:44.029Z,100787.16
2023-09-06T14:29:12.962Z,100784.75
2023-09-06T14:31:40.061Z,100782.69
2023-09-06T14:34:06.531Z,100774.06
2023-09-06T14:36:33.230Z,100779.28
2023-09-06T14:39:00.044Z,100781.28
2023-09-06T14:41:26.484Z,100776.69
2023-09-06T14:43:53.144Z,100776.69
2023-09-06T14:46:19.934Z,100776.91
2023-09-06T14:48:47.148Z,100775.75
2023-09-06T14:51:13.643Z,100773.59
2023-09-06T14:53:40.021Z,100769.69
2023-09-06T14:56:08.000Z,100770.25
2023-09-06T14:58:34.657Z,100763.81
2023-09-06T15:01:01.971Z,100770.47
2023-09-06T15:03:28.864Z,100763.22
2023-09-06T15:05:55.424Z,100770.66
2023-09-06T15:08:21.784Z,100767.34
2023-09-06T15:10:48.357Z,100776.50
2023-09-06T15:13:14.781Z,100756.84
2023-09-06T15:15:43.373Z,100769.53
2023-09-06T15:18:10.377Z,100769.94
2023-09-06T15:20:37.338Z,100765.06
2023-09-06T15:23:04.123Z,100763.09
2023-09-06T15:25:30.992Z,100763.97
2023-09-06T15:27:57.374Z,100760.75
2023-09-06T15:30:23.940Z,100776.94
2023-09-06T15:32:50.564Z,100765.66
2023-09-06T15:35:17.730Z,100768.56
2023-09-06T15:37:58.183Z,100759.31
2023-09-06T15:40:25.113Z,100769.84
2023-09-06T15:42:51.575Z,100765.50
2023-09-06T15:45:18.019Z,100767.91
2023-09-06T15:47:46.685Z,100767.03
2023-09-06T15:50:20.916Z,100767.19
2023-09-06T15:52:48.754Z,100773.63
2023-09-06T15:55:16.009Z,100772.03
2023-09-06T15:57:43.506Z,100765.78
2023-09-06T16:00:24.286Z,100760.50
2023-09-06T16:02:57.428Z,100755.84
2023-09-06T16:05:23.994Z,100756.41
2023-09-06T16:07:50.446Z,100762.34
2023-09-06T16:10:16.792Z,100755.59
2023-09-06T16:12:44.874Z,100752.53
2023-09-06T16:15:13.113Z,100758.69
2023-09-06T16:17:39.681Z,100752.34
2023-09-06T16:20:06.792Z,100748.75
2023-09-06T16:22:33.196Z,100757.38
2023-09-06T16:25:01.722Z,100751.69
2023-09-06T16:27:28.046Z,100745.59
2023-09-06T16:29:54.615Z,100743.13
2023-09-06T16:32:21.125Z,100751.56
2023-09-06T16:34:47.622Z,100747.34
2023-09-06T16:37:14.024Z,100749.44
2023-09-06T16:39:44.519Z,100745.22
2023-09-06T16:42:11.056Z,100735.56
2023-09-06T16:44:39.030Z,100748.38
2023-09-06T16:47:06.023Z,100744.13
2023-09-06T16:49:32.878Z,100743.59
2023-09-06T16:51:59.397Z,100743.84
2023-09-06T16:54:26.008Z,100742.47
2023-09-06T16:56:52.334Z,100737.44
2023-09-06T16:59:18.712Z,100740.50
2023-09-06T17:01:45.236Z,100740.88
2023-09-06T17:04:11.711Z,100736.88
2023-09-06T17:06:38.278Z,100732.34
2023-09-06T17:09:09.549Z,100737.47
2023-09-06T17:11:41.344Z,100741.06
2023-09-06T17:14:08.354Z,100739.28
2023-09-06T17:16:34.991Z,100744.59
2023-09-06T17:19:16.723Z,100738.41
2023-09-06T17:21:43.128Z,100731.78
2023-09-06T17:24:10.008Z,100733.09
2023-09-06T17:26:42.561Z,100737.16
2023-09-06T17:29:15.315Z,100737.72
2023-09-06T17:31:43.100Z,100738.31
2023-09-06T17:34:12.855Z,100733.53
2023-09-06T17:36:39.869Z,100731.63
2023-09-06T17:39:09.128Z,100729.88
2023-09-06T17:41:36.853Z,100742.34
2023-09-06T17:44:06.844Z,100746.75
2023-09-06T17:46:36.634Z,100749.09
2023-09-06T17:49:06.992Z,100755.38
2023-09-06T17:51:35.283Z,100755.16
2023-09-06T17:54:04.408Z,100752.19
2023-09-06T17:56:30.883Z,100749.78
2023-09-06T17:58:57.812Z,100751.28
2023-09-06T18:01:24.875Z,100746.47
2023-09-06T18:03:58.837Z,100744.16
2023-09-06T18:06:26.929Z,100755.88
2023-09-06T18:08:59.202Z,100747.09
2023-09-06T18:11:26.082Z,100751.03
2023-09-06T18:13:53.167Z,100756.63
2023-09-06T18:16:19.748Z,100758.56
2023-09-06T18:18:46.466Z,100759.78
2023-09-06T18:21:14.718Z,100761.28
2023-09-06T18:23:42.160Z,100767.00
2023-09-06T18:26:11.741Z,100774.50
2023-09-06T18:28:38.289Z,100767.00
2023-09-06T18:31:05.266Z,100769.09
2023-09-06T18:33:31.738Z,100775.84
2023-09-06T18:35:58.151Z,100768.19
2023-09-06T18:38:25.093Z,100783.75
2023-09-06T18:40:55.339Z,100776.22
2023-09-06T18:43:23.343Z,100784.75
2023-09-06T18:45:50.945Z,100779.53
2023-09-06T18:48:20.389Z,100787.97
2023-09-06T18:50:48.011Z,100790.94
2023-09-06T18:53:14.841Z,100794.91
2023-09-06T18:55:44.296Z,100788.84
2023-09-06T18:58:11.999Z,100799.09
2023-09-06T19:00:39.927Z,100803.03
2023-09-06T19:03:12.312Z,100801.53
2023-09-06T19:05:40.060Z,100799.13
2023-09-06T19:08:12.543Z,100802.22
2023-09-06T19:10:41.056Z,100803.56
2023-09-06T19:13:08.357Z,100805.72
2023-09-06T19:15:35.149Z,100801.59
2023-09-06T19:18:03.443Z,100811.75
2023-09-06T19:20:29.932Z,100799.59
2023-09-06T19:22:56.395Z,100811.59
2023-09-06T19:25:26.412Z,100807.25
2023-09-06T19:27:53.330Z,100804.72
2023-09-06T19:30:20.135Z,100803.28
2023-09-06T19:32:46.636Z,100810.47
2023-09-06T19:35:14.132Z,100804.97
2023-09-06T19:37:40.536Z,100813.63
2023-09-06T19:40:08.150Z,100806.47
2023-09-06T19:42:34.941Z,100818.22
2023-09-06T19:45:02.301Z,100821.09
2023-09-06T19:47:28.853Z,100815.91
2023-09-06T19:49:56.849Z,100821.47
2023-09-06T19:52:23.328Z,100825.97
2023-09-06T19:54:49.729Z,100821.47
2023-09-06T19:57:16.776Z,100820.75
2023-09-06T19:59:43.151Z,100819.09
2023-09-06T20:02:09.607Z,100820.19
2023-09-06T20:04:36.389Z,100814.06
2023-09-06T20:07:05.174Z,100824.13
2023-09-06T20:09:31.951Z,100815.44
2023-09-06T20:11:58.586Z,100816.53
2023-09-06T20:14:28.639Z,100817.63
2023-09-06T20:16:56.694Z,100822.25
2023-09-06T20:19:23.559Z,100811.63
2023-09-06T20:21:50.044Z,100820.72
2023-09-06T20:24:17.646Z,100812.72
2023-09-06T20:26:44.289Z,100814.63
2023-09-06T20:29:11.024Z,100816.50
2023-09-06T20:31:38.038Z,100814.78
2023-09-06T20:34:05.067Z,100821.13
2023-09-06T20:36:32.838Z,100812.25
2023-09-06T20:38:59.297Z,100823.94
2023-09-06T20:41:25.797Z,100828.47
2023-09-06T20:43:52.194Z,100816.91
2023-09-06T20:46:18.672Z,100833.03
2023-09-06T20:48:47.078Z,100827.66
2023-09-06T20:51:15.368Z,100818.78
2023-09-06T20:53:44.253Z,100831.31
2023-09-06T20:56:11.260Z,100831.38
2023-09-06T20:58:37.687Z,100829.56
2023-09-06T21:01:14.970Z,100827.78
2023-09-06T21:03:42.099Z,100827.78
2023-09-06T21:06:08.761Z,100824.22
2023-09-06T21:08:35.342Z,100825.13
2023-09-06T21:11:02.616Z,100822.50
2023-09-06T21:13:29.073Z,100829.69
2023-09-06T21:15:57.127Z,100829.75
2023-09-06T21:18:24.598Z,100833.31
2023-09-06T21:20:51.212Z,100833.34
2023-09-06T21:23:17.635Z,100830.72
2023-09-06T21:25:44.252Z,100832.56
2023-09-06T21:28:10.783Z,100833.53
2023-09-06T21:30:42.181Z,100833.56
2023-09-06T21:33:09.885Z,100839.84
2023-09-06T21:35:41.704Z,100825.63
2023-09-06T21:38:08.844Z,100837.19
2023-09-06T21:40:43.282Z,100847.91
2023-09-06T21:43:19.232Z,100846.16
2023-09-06T21:45:46.693Z,100838.16
2023-09-06T21:48:13.430Z,100844.44
2023-09-06T21:50:41.852Z,100840.91
2023-09-06T21:53:08.508Z,100856.09
2023-09-06T21:55:35.086Z,100855.25
2023-09-06T21:58:09.509Z,100850.81
2023-09-06T22:00:37.187Z,100852.59
2023-09-06T22:03:03.829Z,100848.16
2023-09-06T22:05:30.229Z,100849.06
2023-09-06T22:07:56.628Z,100849.97
2023-09-06T22:10:23.093Z,100849.06
2023-09-06T22:12:49.732Z,100854.44
2023-09-06T22:15:16.294Z,100842.84
2023-09-06T22:17:43.274Z,100853.53
2023-09-06T22:20:10.229Z,100850.81
2023-09-06T22:22:37.011Z,100848.16
2023-09-06T22:25:05.561Z,100844.56
2023-09-06T22:27:31.929Z,100849.03
2023-09-06T22:29:58.318Z,100849.09
2023-09-06T22:32:24.801Z,100858.00
2023-09-06T22:34:51.159Z,100857.13
2023-09-06T22:37:17.516Z,100855.41
2023-09-06T22:39:44.147Z,100852.72
2023-09-06T22:42:12.023Z,100850.03
2023-09-06T22:44:38.514Z,100849.16
2023-09-06T22:47:05.014Z,100843.84
2023-09-06T22:49:31.457Z,100848.31
2023-09-06T22:51:58.049Z,100851.88
2023-09-06T22:54:24.473Z,100854.56
2023-09-06T22:56:50.932Z,100848.34
2023-09-06T22:59:17.434Z,100851.00
2023-09-06T23:01:43.962Z,100853.69
2023-09-06T23:04:11.644Z,100852.81
2023-09-06T23:06:38.309Z,100846.59
2023-09-06T23:09:07.951Z,100855.47
2023-09-06T23:11:35.505Z,100861.69
2023-09-06T23:14:06.373Z,100862.59
2023-09-06T23:16:34.784Z,100862.59
2023-09-06T23:19:03.185Z,100873.28
2023-09-06T23:21:38.766Z,100864.41
2023-09-06T23:24:12.564Z,100870.63
2023-09-06T23:26:40.048Z,100861.69
2023-09-06T23:29:08.327Z,100863.44
2023-09-06T23:31:40.061Z,100863.44
2023-09-06T23:34:15.621Z,100859.00
2023-09-06T23:36:42.082Z,100865.22
2023-09-06T23:39:12.522Z,100866.13
2023-09-06T23:41:41.356Z,100859.00
2023-09-06T23:44:09.479Z,100858.09
2023-09-06T23:46:36.241Z,100858.09
2023-09-06T23:49:03.043Z,100864.34
2023-09-06T23:51:30.775Z,100864.34
2023-09-06T23:53:57.101Z,100865.22
2023-09-06T23:56:23.497Z,100856.31
2023-09-06T23:58:49.896Z,100865.22
